sensor_id;sensor_type;location;lat;lon;timestamp;P1;durP1;ratioP1;P2;durP2;ratioP2
33690;SDS011;20026;50.058;18.428;2023-04-21T00:01:09;181.02;;;88.88;;
33690;SDS011;20026;50.058;18.428;2023-04-21T00:03:37;190.30;;;90.17;;
33690;SDS011;20026;50.058;18.428;2023-04-21T00:06:04;179.93;;;88.63;;
33690;SDS011;20026;50.058;18.428;2023-04-21T00:08:31;183.05;;;89.43;;
33690;SDS011;20026;50.058;18.428;2023-04-21T00:10:57;184.75;;;89.53;;
33690;SDS011;20026;50.058;18.428;2023-04-21T00:13:26;170.35;;;84.63;;
33690;SDS011;20026;50.058;18.428;2023-04-21T00:15:52;168.82;;;86.60;;
33690;SDS011;20026;50.058;18.428;2023-04-21T00:18:18;177.95;;;85.88;;
33690;SDS011;20026;50.058;18.428;2023-04-21T00:20:45;175.52;;;84.90;;
33690;SDS011;20026;50.058;18.428;2023-04-21T00:23:13;164.38;;;81.22;;
33690;SDS011;20026;50.058;18.428;2023-04-21T00:25:39;169.23;;;82.95;;
33690;SDS011;20026;50.058;18.428;2023-04-21T00:28:06;156.55;;;79.65;;
33690;SDS011;20026;50.058;18.428;2023-04-21T00:30:32;158.85;;;81.25;;
33690;SDS011;20026;50.058;18.428;2023-04-21T00:32:58;151.02;;;79.22;;
33690;SDS011;20026;50.058;18.428;2023-04-21T00:35:25;151.38;;;79.07;;
33690;SDS011;20026;50.058;18.428;2023-04-21T00:37:52;156.38;;;77.82;;
33690;SDS011;20026;50.058;18.428;2023-04-21T00:40:18;157.90;;;75.95;;
33690;SDS011;20026;50.058;18.428;2023-04-21T00:42:44;158.70;;;78.10;;
33690;SDS011;20026;50.058;18.428;2023-04-21T00:45:10;147.07;;;73.97;;
33690;SDS011;20026;50.058;18.428;2023-04-21T00:47:39;143.75;;;73.95;;
33690;SDS011;20026;50.058;18.428;2023-04-21T00:50:05;129.32;;;69.80;;
33690;SDS011;20026;50.058;18.428;2023-04-21T00:52:33;132.70;;;69.07;;
33690;SDS011;20026;50.058;18.428;2023-04-21T00:55:00;127.07;;;67.53;;
33690;SDS011;20026;50.058;18.428;2023-04-21T00:57:26;140.32;;;69.93;;
33690;SDS011;20026;50.058;18.428;2023-04-21T00:59:53;125.57;;;67.60;;
33690;SDS011;20026;50.058;18.428;2023-04-21T01:02:20;126.38;;;65.13;;
33690;SDS011;20026;50.058;18.428;2023-04-21T01:04:47;117.88;;;64.07;;
33690;SDS011;20026;50.058;18.428;2023-04-21T01:07:14;121.22;;;65.97;;
33690;SDS011;20026;50.058;18.428;2023-04-21T01:09:40;124.57;;;66.18;;
33690;SDS011;20026;50.058;18.428;2023-04-21T01:12:07;120.45;;;65.88;;
33690;SDS011;20026;50.058;18.428;2023-04-21T01:14:39;129.38;;;68.63;;
33690;SDS011;20026;50.058;18.428;2023-04-21T01:17:06;128.23;;;67.38;;
33690;SDS011;20026;50.058;18.428;2023-04-21T01:19:37;128.27;;;70.07;;
33690;SDS011;20026;50.058;18.428;2023-04-21T01:22:05;127.60;;;69.82;;
33690;SDS011;20026;50.058;18.428;2023-04-21T01:24:38;130.43;;;70.10;;
33690;SDS011;20026;50.058;18.428;2023-04-21T01:27:08;129.73;;;70.05;;
33690;SDS011;20026;50.058;18.428;2023-04-21T01:29:35;132.73;;;71.10;;
33690;SDS011;20026;50.058;18.428;2023-04-21T01:32:06;129.45;;;70.60;;
33690;SDS011;20026;50.058;18.428;2023-04-21T01:34:32;129.18;;;71.30;;
33690;SDS011;20026;50.058;18.428;2023-04-21T01:36:59;128.10;;;72.82;;
33690;SDS011;20026;50.058;18.428;2023-04-21T01:39:25;139.20;;;77.05;;
33690;SDS011;20026;50.058;18.428;2023-04-21T01:41:52;146.95;;;79.45;;
33690;SDS011;20026;50.058;18.428;2023-04-21T01:44:20;141.43;;;79.30;;
33690;SDS011;20026;50.058;18.428;2023-04-21T01:49:16;157.57;;;79.90;;
33690;SDS011;20026;50.058;18.428;2023-04-21T01:51:43;148.63;;;77.72;;
33690;SDS011;20026;50.058;18.428;2023-04-21T01:54:10;159.48;;;82.15;;
33690;SDS011;20026;50.058;18.428;2023-04-21T01:56:36;160.60;;;81.97;;
33690;SDS011;20026;50.058;18.428;2023-04-21T01:59:03;148.55;;;77.15;;
33690;SDS011;20026;50.058;18.428;2023-04-21T02:01:30;150.95;;;77.20;;
33690;SDS011;20026;50.058;18.428;2023-04-21T02:03:56;143.95;;;72.35;;
33690;SDS011;20026;50.058;18.428;2023-04-21T02:06:22;142.23;;;75.05;;
33690;SDS011;20026;50.058;18.428;2023-04-21T02:08:48;135.48;;;70.80;;
33690;SDS011;20026;50.058;18.428;2023-04-21T02:11:15;141.50;;;73.22;;
33690;SDS011;20026;50.058;18.428;2023-04-21T02:13:42;150.90;;;75.97;;
33690;SDS011;20026;50.058;18.428;2023-04-21T02:16:08;147.73;;;78.25;;
33690;SDS011;20026;50.058;18.428;2023-04-21T02:18:34;153.13;;;81.60;;
33690;SDS011;20026;50.058;18.428;2023-04-21T02:21:04;144.20;;;76.72;;
33690;SDS011;20026;50.058;18.428;2023-04-21T02:23:31;158.50;;;78.75;;
33690;SDS011;20026;50.058;18.428;2023-04-21T02:25:57;157.20;;;77.90;;
33690;SDS011;20026;50.058;18.428;2023-04-21T02:28:24;154.63;;;79.78;;
33690;SDS011;20026;50.058;18.428;2023-04-21T02:30:54;149.18;;;75.53;;
33690;SDS011;20026;50.058;18.428;2023-04-21T02:33:21;190.50;;;104.38;;
33690;SDS011;20026;50.058;18.428;2023-04-21T02:35:47;157.18;;;83.53;;
33690;SDS011;20026;50.058;18.428;2023-04-21T02:38:13;163.98;;;84.78;;
33690;SDS011;20026;50.058;18.428;2023-04-21T02:40:39;161.25;;;82.15;;
33690;SDS011;20026;50.058;18.428;2023-04-21T02:43:06;158.80;;;84.50;;
33690;SDS011;20026;50.058;18.428;2023-04-21T02:45:33;156.77;;;85.82;;
33690;SDS011;20026;50.058;18.428;2023-04-21T02:47:59;156.18;;;83.15;;
33690;SDS011;20026;50.058;18.428;2023-04-21T02:50:26;150.23;;;82.10;;
33690;SDS011;20026;50.058;18.428;2023-04-21T02:52:54;161.88;;;84.15;;
33690;SDS011;20026;50.058;18.428;2023-04-21T02:55:21;156.05;;;86.50;;
33690;SDS011;20026;50.058;18.428;2023-04-21T02:57:47;155.05;;;84.20;;
33690;SDS011;20026;50.058;18.428;2023-04-21T03:00:14;183.18;;;95.88;;
33690;SDS011;20026;50.058;18.428;2023-04-21T03:02:40;171.45;;;95.13;;
33690;SDS011;20026;50.058;18.428;2023-04-21T03:05:07;161.75;;;90.03;;
33690;SDS011;20026;50.058;18.428;2023-04-21T03:07:33;167.00;;;92.65;;
33690;SDS011;20026;50.058;18.428;2023-04-21T03:09:59;158.63;;;88.07;;
33690;SDS011;20026;50.058;18.428;2023-04-21T03:12:26;162.25;;;90.72;;
33690;SDS011;20026;50.058;18.428;2023-04-21T03:14:52;173.50;;;101.03;;
33690;SDS011;20026;50.058;18.428;2023-04-21T03:17:19;171.30;;;97.40;;
33690;SDS011;20026;50.058;18.428;2023-04-21T03:19:45;162.43;;;89.75;;
33690;SDS011;20026;50.058;18.428;2023-04-21T03:22:12;152.15;;;80.15;;
33690;SDS011;20026;50.058;18.428;2023-04-21T03:24:39;161.45;;;87.80;;
33690;SDS011;20026;50.058;18.428;2023-04-21T03:27:05;163.60;;;90.97;;
33690;SDS011;20026;50.058;18.428;2023-04-21T03:29:31;164.40;;;94.60;;
33690;SDS011;20026;50.058;18.428;2023-04-21T03:31:58;156.93;;;91.45;;
33690;SDS011;20026;50.058;18.428;2023-04-21T03:34:24;156.10;;;91.07;;
33690;SDS011;20026;50.058;18.428;2023-04-21T03:36:50;156.27;;;92.15;;
33690;SDS011;20026;50.058;18.428;2023-04-21T03:39:17;156.02;;;92.88;;
33690;SDS011;20026;50.058;18.428;2023-04-21T03:41:44;168.50;;;97.72;;
33690;SDS011;20026;50.058;18.428;2023-04-21T03:44:11;167.05;;;94.07;;
33690;SDS011;20026;50.058;18.428;2023-04-21T03:46:37;162.80;;;88.38;;
33690;SDS011;20026;50.058;18.428;2023-04-21T03:49:04;157.45;;;88.28;;
33690;SDS011;20026;50.058;18.428;2023-04-21T03:51:31;161.65;;;93.40;;
33690;SDS011;20026;50.058;18.428;2023-04-21T03:53:57;151.82;;;93.30;;
33690;SDS011;20026;50.058;18.428;2023-04-21T03:56:24;149.20;;;92.78;;
33690;SDS011;20026;50.058;18.428;2023-04-21T03:58:50;155.93;;;92.00;;
33690;SDS011;20026;50.058;18.428;2023-04-21T04:01:17;151.10;;;92.10;;
33690;SDS011;20026;50.058;18.428;2023-04-21T04:03:44;154.82;;;95.22;;
33690;SDS011;20026;50.058;18.428;2023-04-21T04:06:10;161.80;;;96.30;;
33690;SDS011;20026;50.058;18.428;2023-04-21T04:08:36;157.68;;;97.75;;
33690;SDS011;20026;50.058;18.428;2023-04-21T04:11:03;171.68;;;100.13;;
33690;SDS011;20026;50.058;18.428;2023-04-21T04:13:30;168.52;;;94.95;;
33690;SDS011;20026;50.058;18.428;2023-04-21T04:15:57;156.35;;;90.97;;
33690;SDS011;20026;50.058;18.428;2023-04-21T04:18:23;158.35;;;91.55;;
33690;SDS011;20026;50.058;18.428;2023-04-21T04:20:50;157.57;;;85.95;;
33690;SDS011;20026;50.058;18.428;2023-04-21T04:23:16;161.90;;;87.03;;
33690;SDS011;20026;50.058;18.428;2023-04-21T04:25:42;173.48;;;93.43;;
33690;SDS011;20026;50.058;18.428;2023-04-21T04:28:09;161.95;;;93.00;;
33690;SDS011;20026;50.058;18.428;2023-04-21T04:30:36;172.30;;;98.22;;
33690;SDS011;20026;50.058;18.428;2023-04-21T04:33:05;179.15;;;101.25;;
33690;SDS011;20026;50.058;18.428;2023-04-21T04:35:33;187.25;;;102.20;;
33690;SDS011;20026;50.058;18.428;2023-04-21T04:37:59;173.10;;;104.00;;
33690;SDS011;20026;50.058;18.428;2023-04-21T04:40:26;172.82;;;106.80;;
33690;SDS011;20026;50.058;18.428;2023-04-21T04:42:53;184.90;;;107.47;;
33690;SDS011;20026;50.058;18.428;2023-04-21T04:45:20;186.57;;;112.63;;
33690;SDS011;20026;50.058;18.428;2023-04-21T04:47:48;193.23;;;118.75;;
33690;SDS011;20026;50.058;18.428;2023-04-21T04:50:14;196.45;;;116.75;;
33690;SDS011;20026;50.058;18.428;2023-04-21T04:52:40;209.52;;;127.45;;
33690;SDS011;20026;50.058;18.428;2023-04-21T04:55:11;200.70;;;120.13;;
33690;SDS011;20026;50.058;18.428;2023-04-21T04:57:38;187.98;;;115.45;;
33690;SDS011;20026;50.058;18.428;2023-04-21T05:00:07;202.07;;;120.28;;
33690;SDS011;20026;50.058;18.428;2023-04-21T05:02:36;193.88;;;113.90;;
33690;SDS011;20026;50.058;18.428;2023-04-21T05:05:03;185.95;;;113.70;;
33690;SDS011;20026;50.058;18.428;2023-04-21T05:07:30;181.00;;;108.30;;
33690;SDS011;20026;50.058;18.428;2023-04-21T05:09:57;188.02;;;104.97;;
33690;SDS011;20026;50.058;18.428;2023-04-21T05:12:23;203.90;;;119.43;;
33690;SDS011;20026;50.058;18.428;2023-04-21T05:14:50;138.02;;;87.72;;
33690;SDS011;20026;50.058;18.428;2023-04-21T05:17:16;115.70;;;68.93;;
33690;SDS011;20026;50.058;18.428;2023-04-21T05:19:43;96.57;;;57.22;;
33690;SDS011;20026;50.058;18.428;2023-04-21T05:22:10;123.07;;;70.68;;
33690;SDS011;20026;50.058;18.428;2023-04-21T05:24:39;97.35;;;58.92;;
33690;SDS011;20026;50.058;18.428;2023-04-21T05:27:05;104.47;;;61.25;;
33690;SDS011;20026;50.058;18.428;2023-04-21T05:29:32;102.88;;;59.75;;
33690;SDS011;20026;50.058;18.428;2023-04-21T05:31:58;99.10;;;63.95;;
33690;SDS011;20026;50.058;18.428;2023-04-21T05:34:25;107.68;;;66.05;;
33690;SDS011;20026;50.058;18.428;2023-04-21T05:36:52;121.18;;;74.95;;
33690;SDS011;20026;50.058;18.428;2023-04-21T05:39:18;114.53;;;71.32;;
33690;SDS011;20026;50.058;18.428;2023-04-21T05:41:44;99.60;;;63.30;;
33690;SDS011;20026;50.058;18.428;2023-04-21T05:44:11;99.43;;;57.80;;
33690;SDS011;20026;50.058;18.428;2023-04-21T05:46:37;89.28;;;52.08;;
33690;SDS011;20026;50.058;18.428;2023-04-21T05:49:04;82.95;;;48.67;;
33690;SDS011;20026;50.058;18.428;2023-04-21T05:51:30;92.97;;;55.47;;
33690;SDS011;20026;50.058;18.428;2023-04-21T05:53:57;61.55;;;37.63;;
33690;SDS011;20026;50.058;18.428;2023-04-21T05:56:23;68.45;;;41.05;;
33690;SDS011;20026;50.058;18.428;2023-04-21T05:58:50;59.22;;;31.20;;
33690;SDS011;20026;50.058;18.428;2023-04-21T06:01:16;56.97;;;33.35;;
33690;SDS011;20026;50.058;18.428;2023-04-21T06:03:43;53.17;;;28.38;;
33690;SDS011;20026;50.058;18.428;2023-04-21T06:06:13;195.93;;;70.43;;
33690;SDS011;20026;50.058;18.428;2023-04-21T06:08:39;151.00;;;58.15;;
33690;SDS011;20026;50.058;18.428;2023-04-21T06:11:06;60.75;;;34.10;;
33690;SDS011;20026;50.058;18.428;2023-04-21T06:13:32;54.78;;;30.50;;
33690;SDS011;20026;50.058;18.428;2023-04-21T06:15:58;56.38;;;32.47;;
33690;SDS011;20026;50.058;18.428;2023-04-21T06:18:27;50.25;;;30.52;;
33690;SDS011;20026;50.058;18.428;2023-04-21T06:20:54;53.28;;;28.65;;
33690;SDS011;20026;50.058;18.428;2023-04-21T06:23:21;46.00;;;28.38;;
33690;SDS011;20026;50.058;18.428;2023-04-21T06:26:00;47.58;;;27.02;;
33690;SDS011;20026;50.058;18.428;2023-04-21T06:28:29;46.58;;;26.58;;
33690;SDS011;20026;50.058;18.428;2023-04-21T06:30:55;51.33;;;28.63;;
33690;SDS011;20026;50.058;18.428;2023-04-21T06:33:22;61.70;;;28.33;;
33690;SDS011;20026;50.058;18.428;2023-04-21T06:35:49;47.95;;;25.10;;
33690;SDS011;20026;50.058;18.428;2023-04-21T06:38:15;54.22;;;24.70;;
33690;SDS011;20026;50.058;18.428;2023-04-21T06:40:42;52.28;;;26.45;;
33690;SDS011;20026;50.058;18.428;2023-04-21T06:43:08;46.38;;;22.88;;
33690;SDS011;20026;50.058;18.428;2023-04-21T06:45:35;48.30;;;24.52;;
33690;SDS011;20026;50.058;18.428;2023-04-21T06:48:01;44.55;;;25.88;;
33690;SDS011;20026;50.058;18.428;2023-04-21T06:50:28;66.60;;;29.52;;
33690;SDS011;20026;50.058;18.428;2023-04-21T06:52:55;70.20;;;28.20;;
33690;SDS011;20026;50.058;18.428;2023-04-21T06:55:21;39.30;;;20.70;;
33690;SDS011;20026;50.058;18.428;2023-04-21T06:57:47;37.08;;;20.38;;
33690;SDS011;20026;50.058;18.428;2023-04-21T07:00:13;39.58;;;22.25;;
33690;SDS011;20026;50.058;18.428;2023-04-21T07:02:40;35.67;;;18.48;;
33690;SDS011;20026;50.058;18.428;2023-04-21T07:05:07;27.63;;;16.48;;
33690;SDS011;20026;50.058;18.428;2023-04-21T07:07:33;33.08;;;17.02;;
33690;SDS011;20026;50.058;18.428;2023-04-21T07:10:00;28.90;;;16.65;;
33690;SDS011;20026;50.058;18.428;2023-04-21T07:12:26;30.80;;;16.17;;
33690;SDS011;20026;50.058;18.428;2023-04-21T07:14:52;30.50;;;19.05;;
33690;SDS011;20026;50.058;18.428;2023-04-21T07:17:18;29.30;;;16.90;;
33690;SDS011;20026;50.058;18.428;2023-04-21T07:19:45;30.05;;;16.60;;
33690;SDS011;20026;50.058;18.428;2023-04-21T07:22:11;31.02;;;15.63;;
33690;SDS011;20026;50.058;18.428;2023-04-21T07:24:37;35.05;;;18.65;;
33690;SDS011;20026;50.058;18.428;2023-04-21T07:27:04;34.33;;;17.98;;
33690;SDS011;20026;50.058;18.428;2023-04-21T07:29:30;32.78;;;16.77;;
33690;SDS011;20026;50.058;18.428;2023-04-21T07:31:57;29.83;;;16.75;;
33690;SDS011;20026;50.058;18.428;2023-04-21T07:34:23;29.85;;;16.42;;
33690;SDS011;20026;50.058;18.428;2023-04-21T07:36:50;40.75;;;18.98;;
33690;SDS011;20026;50.058;18.428;2023-04-21T07:39:17;30.15;;;18.77;;
33690;SDS011;20026;50.058;18.428;2023-04-21T07:41:43;31.52;;;16.83;;
33690;SDS011;20026;50.058;18.428;2023-04-21T07:44:10;33.00;;;16.98;;
33690;SDS011;20026;50.058;18.428;2023-04-21T07:46:37;28.95;;;16.55;;
33690;SDS011;20026;50.058;18.428;2023-04-21T07:49:03;36.15;;;18.10;;
33690;SDS011;20026;50.058;18.428;2023-04-21T07:51:30;37.88;;;17.10;;
33690;SDS011;20026;50.058;18.428;2023-04-21T07:53:57;27.15;;;15.48;;
33690;SDS011;20026;50.058;18.428;2023-04-21T07:56:23;37.00;;;17.15;;
33690;SDS011;20026;50.058;18.428;2023-04-21T07:58:50;26.27;;;14.07;;
33690;SDS011;20026;50.058;18.428;2023-04-21T08:01:16;31.50;;;16.63;;
33690;SDS011;20026;50.058;18.428;2023-04-21T08:03:42;30.80;;;16.05;;
33690;SDS011;20026;50.058;18.428;2023-04-21T08:06:09;35.63;;;17.67;;
33690;SDS011;20026;50.058;18.428;2023-04-21T08:08:35;27.95;;;15.65;;
33690;SDS011;20026;50.058;18.428;2023-04-21T08:11:02;35.80;;;16.67;;
33690;SDS011;20026;50.058;18.428;2023-04-21T08:13:28;48.03;;;16.20;;
33690;SDS011;20026;50.058;18.428;2023-04-21T08:15:54;51.00;;;15.55;;
33690;SDS011;20026;50.058;18.428;2023-04-21T08:18:22;43.70;;;15.75;;
33690;SDS011;20026;50.058;18.428;2023-04-21T08:20:49;46.83;;;16.42;;
33690;SDS011;20026;50.058;18.428;2023-04-21T08:23:16;28.73;;;14.35;;
33690;SDS011;20026;50.058;18.428;2023-04-21T08:25:44;24.35;;;12.77;;
33690;SDS011;20026;50.058;18.428;2023-04-21T08:28:11;34.35;;;15.00;;
33690;SDS011;20026;50.058;18.428;2023-04-21T08:30:39;20.63;;;11.47;;
33690;SDS011;20026;50.058;18.428;2023-04-21T08:33:07;19.30;;;12.85;;
33690;SDS011;20026;50.058;18.428;2023-04-21T08:35:37;23.73;;;11.77;;
33690;SDS011;20026;50.058;18.428;2023-04-21T08:38:05;21.60;;;9.60;;
33690;SDS011;20026;50.058;18.428;2023-04-21T08:40:33;20.63;;;10.50;;
33690;SDS011;20026;50.058;18.428;2023-04-21T08:43:00;19.42;;;9.48;;
33690;SDS011;20026;50.058;18.428;2023-04-21T08:45:27;18.42;;;9.77;;
33690;SDS011;20026;50.058;18.428;2023-04-21T08:47:54;22.50;;;10.88;;
33690;SDS011;20026;50.058;18.428;2023-04-21T08:50:20;18.48;;;9.70;;
33690;SDS011;20026;50.058;18.428;2023-04-21T08:52:53;14.32;;;8.70;;
33690;SDS011;20026;50.058;18.428;2023-04-21T08:55:19;16.83;;;9.25;;
33690;SDS011;20026;50.058;18.428;2023-04-21T08:57:50;16.73;;;9.10;;
33690;SDS011;20026;50.058;18.428;2023-04-21T09:00:17;17.85;;;8.85;;
33690;SDS011;20026;50.058;18.428;2023-04-21T09:02:57;21.13;;;8.93;;
33690;SDS011;20026;50.058;18.428;2023-04-21T09:05:27;17.58;;;8.95;;
33690;SDS011;20026;50.058;18.428;2023-04-21T09:08:05;24.65;;;13.13;;
33690;SDS011;20026;50.058;18.428;2023-04-21T09:10:41;17.63;;;9.13;;
33690;SDS011;20026;50.058;18.428;2023-04-21T09:13:08;11.40;;;7.70;;
33690;SDS011;20026;50.058;18.428;2023-04-21T09:15:41;12.88;;;7.35;;
33690;SDS011;20026;50.058;18.428;2023-04-21T09:18:12;14.93;;;7.70;;
33690;SDS011;20026;50.058;18.428;2023-04-21T09:20:39;13.93;;;7.72;;
33690;SDS011;20026;50.058;18.428;2023-04-21T09:23:05;16.63;;;7.45;;
33690;SDS011;20026;50.058;18.428;2023-04-21T09:25:32;10.98;;;7.60;;
33690;SDS011;20026;50.058;18.428;2023-04-21T09:28:01;15.57;;;6.78;;
33690;SDS011;20026;50.058;18.428;2023-04-21T09:30:28;14.13;;;7.45;;
33690;SDS011;20026;50.058;18.428;2023-04-21T09:32:55;13.40;;;8.05;;
33690;SDS011;20026;50.058;18.428;2023-04-21T09:35:22;15.30;;;6.28;;
33690;SDS011;20026;50.058;18.428;2023-04-21T09:37:49;11.38;;;6.20;;
33690;SDS011;20026;50.058;18.428;2023-04-21T09:40:17;9.57;;;7.07;;
33690;SDS011;20026;50.058;18.428;2023-04-21T09:42:44;8.77;;;5.93;;
33690;SDS011;20026;50.058;18.428;2023-04-21T09:45:11;10.10;;;5.30;;
33690;SDS011;20026;50.058;18.428;2023-04-21T09:47:41;8.85;;;6.32;;
33690;SDS011;20026;50.058;18.428;2023-04-21T09:50:11;9.60;;;6.03;;
33690;SDS011;20026;50.058;18.428;2023-04-21T09:52:38;9.73;;;5.20;;
33690;SDS011;20026;50.058;18.428;2023-04-21T09:55:08;10.18;;;5.50;;
33690;SDS011;20026;50.058;18.428;2023-04-21T09:57:37;8.40;;;5.40;;
33690;SDS011;20026;50.058;18.428;2023-04-21T10:00:05;10.05;;;5.22;;
33690;SDS011;20026;50.058;18.428;2023-04-21T10:02:37;10.60;;;5.38;;
33690;SDS011;20026;50.058;18.428;2023-04-21T10:05:05;16.08;;;6.47;;
33690;SDS011;20026;50.058;18.428;2023-04-21T10:07:32;14.73;;;7.00;;
33690;SDS011;20026;50.058;18.428;2023-04-21T10:09:58;13.00;;;6.10;;
33690;SDS011;20026;50.058;18.428;2023-04-21T10:12:25;10.43;;;6.38;;
33690;SDS011;20026;50.058;18.428;2023-04-21T10:14:52;10.98;;;6.63;;
33690;SDS011;20026;50.058;18.428;2023-04-21T10:17:21;14.68;;;8.15;;
33690;SDS011;20026;50.058;18.428;2023-04-21T10:19:52;15.65;;;8.93;;
33690;SDS011;20026;50.058;18.428;2023-04-21T10:22:32;16.30;;;9.10;;
33690;SDS011;20026;50.058;18.428;2023-04-21T10:24:59;18.00;;;8.10;;
33690;SDS011;20026;50.058;18.428;2023-04-21T10:27:30;25.88;;;8.77;;
33690;SDS011;20026;50.058;18.428;2023-04-21T10:29:57;10.93;;;7.05;;
33690;SDS011;20026;50.058;18.428;2023-04-21T10:32:42;13.90;;;7.97;;
33690;SDS011;20026;50.058;18.428;2023-04-21T10:35:10;17.63;;;7.88;;
33690;SDS011;20026;50.058;18.428;2023-04-21T10:37:39;18.92;;;6.05;;
33690;SDS011;20026;50.058;18.428;2023-04-21T10:40:09;9.93;;;5.35;;
33690;SDS011;20026;50.058;18.428;2023-04-21T10:42:53;10.93;;;5.32;;
33690;SDS011;20026;50.058;18.428;2023-04-21T10:45:21;12.85;;;6.78;;
33690;SDS011;20026;50.058;18.428;2023-04-21T10:47:51;9.30;;;5.70;;
33690;SDS011;20026;50.058;18.428;2023-04-21T10:50:21;9.45;;;6.10;;
33690;SDS011;20026;50.058;18.428;2023-04-21T10:52:53;16.83;;;8.43;;
33690;SDS011;20026;50.058;18.428;2023-04-21T10:55:21;14.68;;;9.50;;
33690;SDS011;20026;50.058;18.428;2023-04-21T10:57:51;15.32;;;7.20;;
33690;SDS011;20026;50.058;18.428;2023-04-21T11:00:18;17.10;;;9.68;;
33690;SDS011;20026;50.058;18.428;2023-04-21T11:02:54;14.13;;;8.02;;
33690;SDS011;20026;50.058;18.428;2023-04-21T11:05:33;14.95;;;7.00;;
33690;SDS011;20026;50.058;18.428;2023-04-21T11:08:06;12.07;;;6.60;;
33690;SDS011;20026;50.058;18.428;2023-04-21T11:13:11;23.37;;;10.10;;
33690;SDS011;20026;50.058;18.428;2023-04-21T11:15:38;10.35;;;6.90;;
33690;SDS011;20026;50.058;18.428;2023-04-21T11:18:04;14.23;;;7.03;;
33690;SDS011;20026;50.058;18.428;2023-04-21T11:20:32;11.80;;;7.45;;
33690;SDS011;20026;50.058;18.428;2023-04-21T11:22:59;13.18;;;7.47;;
33690;SDS011;20026;50.058;18.428;2023-04-21T11:25:25;9.88;;;6.95;;
33690;SDS011;20026;50.058;18.428;2023-04-21T11:27:52;10.30;;;6.78;;
33690;SDS011;20026;50.058;18.428;2023-04-21T11:30:19;17.30;;;10.10;;
33690;SDS011;20026;50.058;18.428;2023-04-21T11:32:45;13.50;;;7.68;;
33690;SDS011;20026;50.058;18.428;2023-04-21T11:35:18;13.68;;;6.93;;
33690;SDS011;20026;50.058;18.428;2023-04-21T11:37:45;16.80;;;7.03;;
33690;SDS011;20026;50.058;18.428;2023-04-21T11:40:14;10.38;;;6.35;;
33690;SDS011;20026;50.058;18.428;2023-04-21T11:42:41;12.30;;;6.53;;
33690;SDS011;20026;50.058;18.428;2023-04-21T11:45:14;14.00;;;6.63;;
33690;SDS011;20026;50.058;18.428;2023-04-21T11:47:41;11.55;;;7.10;;
33690;SDS011;20026;50.058;18.428;2023-04-21T11:50:08;9.90;;;6.43;;
33690;SDS011;20026;50.058;18.428;2023-04-21T11:52:35;11.73;;;7.20;;
33690;SDS011;20026;50.058;18.428;2023-04-21T11:55:03;12.80;;;6.53;;
33690;SDS011;20026;50.058;18.428;2023-04-21T11:57:30;8.80;;;6.25;;
33690;SDS011;20026;50.058;18.428;2023-04-21T11:59:57;12.20;;;7.10;;
33690;SDS011;20026;50.058;18.428;2023-04-21T12:02:25;11.98;;;6.45;;
33690;SDS011;20026;50.058;18.428;2023-04-21T12:04:58;8.05;;;5.88;;
33690;SDS011;20026;50.058;18.428;2023-04-21T12:07:25;13.10;;;6.03;;
33690;SDS011;20026;50.058;18.428;2023-04-21T12:09:52;13.02;;;5.97;;
33690;SDS011;20026;50.058;18.428;2023-04-21T12:12:20;10.50;;;5.78;;
33690;SDS011;20026;50.058;18.428;2023-04-21T12:14:48;11.05;;;5.63;;
33690;SDS011;20026;50.058;18.428;2023-04-21T12:17:16;9.93;;;5.88;;
33690;SDS011;20026;50.058;18.428;2023-04-21T12:19:43;13.63;;;6.03;;
33690;SDS011;20026;50.058;18.428;2023-04-21T12:22:13;12.38;;;5.43;;
33690;SDS011;20026;50.058;18.428;2023-04-21T12:24:40;18.13;;;6.15;;
33690;SDS011;20026;50.058;18.428;2023-04-21T12:27:07;8.82;;;5.60;;
33690;SDS011;20026;50.058;18.428;2023-04-21T12:29:33;6.65;;;5.18;;
33690;SDS011;20026;50.058;18.428;2023-04-21T12:32:02;12.07;;;5.28;;
33690;SDS011;20026;50.058;18.428;2023-04-21T12:34:28;7.30;;;4.55;;
33690;SDS011;20026;50.058;18.428;2023-04-21T12:36:54;6.32;;;4.78;;
33690;SDS011;20026;50.058;18.428;2023-04-21T12:39:21;12.93;;;6.53;;
33690;SDS011;20026;50.058;18.428;2023-04-21T12:41:48;9.75;;;6.85;;
33690;SDS011;20026;50.058;18.428;2023-04-21T12:44:14;16.67;;;8.65;;
33690;SDS011;20026;50.058;18.428;2023-04-21T12:46:41;14.65;;;7.43;;
33690;SDS011;20026;50.058;18.428;2023-04-21T12:49:07;7.50;;;5.15;;
33690;SDS011;20026;50.058;18.428;2023-04-21T12:51:35;10.77;;;4.95;;
33690;SDS011;20026;50.058;18.428;2023-04-21T12:54:01;8.85;;;5.20;;
33690;SDS011;20026;50.058;18.428;2023-04-21T12:56:27;7.97;;;5.22;;
33690;SDS011;20026;50.058;18.428;2023-04-21T12:58:56;8.60;;;5.47;;
33690;SDS011;20026;50.058;18.428;2023-04-21T13:01:23;7.10;;;4.70;;
33690;SDS011;20026;50.058;18.428;2023-04-21T13:03:49;8.27;;;5.60;;
33690;SDS011;20026;50.058;18.428;2023-04-21T13:06:15;9.10;;;5.25;;
33690;SDS011;20026;50.058;18.428;2023-04-21T13:08:42;7.72;;;5.38;;
33690;SDS011;20026;50.058;18.428;2023-04-21T13:11:08;9.60;;;4.80;;
33690;SDS011;20026;50.058;18.428;2023-04-21T13:13:34;8.00;;;5.00;;
33690;SDS011;20026;50.058;18.428;2023-04-21T13:16:01;9.45;;;4.65;;
33690;SDS011;20026;50.058;18.428;2023-04-21T13:18:27;12.10;;;4.70;;
33690;SDS011;20026;50.058;18.428;2023-04-21T13:20:54;10.90;;;5.70;;
33690;SDS011;20026;50.058;18.428;2023-04-21T13:23:20;8.35;;;5.18;;
33690;SDS011;20026;50.058;18.428;2023-04-21T13:25:47;7.68;;;5.13;;
33690;SDS011;20026;50.058;18.428;2023-04-21T13:28:15;6.30;;;4.88;;
33690;SDS011;20026;50.058;18.428;2023-04-21T13:30:42;9.77;;;4.90;;
33690;SDS011;20026;50.058;18.428;2023-04-21T13:33:09;6.25;;;5.25;;
33690;SDS011;20026;50.058;18.428;2023-04-21T13:35:36;6.65;;;5.00;;
33690;SDS011;20026;50.058;18.428;2023-04-21T13:38:03;9.27;;;4.55;;
33690;SDS011;20026;50.058;18.428;2023-04-21T13:40:30;6.20;;;4.68;;
33690;SDS011;20026;50.058;18.428;2023-04-21T13:42:57;10.80;;;4.80;;
33690;SDS011;20026;50.058;18.428;2023-04-21T13:45:23;9.23;;;5.50;;
33690;SDS011;20026;50.058;18.428;2023-04-21T13:47:51;9.90;;;5.10;;
33690;SDS011;20026;50.058;18.428;2023-04-21T13:50:18;9.40;;;5.20;;
33690;SDS011;20026;50.058;18.428;2023-04-21T13:52:47;7.95;;;5.43;;
33690;SDS011;20026;50.058;18.428;2023-04-21T13:55:14;6.72;;;4.80;;
33690;SDS011;20026;50.058;18.428;2023-04-21T13:57:40;6.40;;;4.20;;
33690;SDS011;20026;50.058;18.428;2023-04-21T14:00:07;9.68;;;4.95;;
33690;SDS011;20026;50.058;18.428;2023-04-21T14:02:35;8.05;;;5.75;;
33690;SDS011;20026;50.058;18.428;2023-04-21T14:05:01;16.33;;;5.63;;
33690;SDS011;20026;50.058;18.428;2023-04-21T14:07:28;8.90;;;5.07;;
33690;SDS011;20026;50.058;18.428;2023-04-21T14:09:55;9.55;;;4.95;;
33690;SDS011;20026;50.058;18.428;2023-04-21T14:12:22;6.72;;;4.60;;
33690;SDS011;20026;50.058;18.428;2023-04-21T14:14:51;10.15;;;5.28;;